Terminal Aerodrome Forecast
Issued by NWS Quad Cities IA IL

Home | Current Version | Previous Version | Text Only | Print | Product List | Glossary On
Versions: 1 2 3 4 5 6 7 8 9 10 11 12 13 14 15 16 17 18 19 20 21
000
FTUS43 KDVN 281400 AAA
TAFMLI
TAF AMD
KMLI 281422Z 2814/2912 10007KT P6SM BKN035
     FM281600 12007KT P6SM VCSH SCT035 OVC040
     FM281800 12005KT P6SM BKN040
     FM290400 12005KT 5SM BR BKN050=

USA.gov is the U.S. government's official web portal to all federal, state and local government web resources and services.